createdAt,value
2022-11-13T00:01:29.356Z,15.18
2022-11-13T00:04:00.708Z,14.50
2022-11-13T00:06:29.811Z,12.65
2022-11-13T00:08:58.928Z,13.50
2022-11-13T00:11:28.012Z,12.65
2022-11-13T00:13:57.119Z,12.65
2022-11-13T00:16:26.188Z,12.85
2022-11-13T00:18:55.835Z,11.85
2022-11-13T00:21:30.294Z,12.00
2022-11-13T00:23:59.445Z,11.48
2022-11-13T00:26:32.202Z,11.32
2022-11-13T00:29:03.904Z,10.95
2022-11-13T00:31:33.142Z,9.75
2022-11-13T00:36:52.177Z,7.95
2022-11-13T00:39:21.828Z,8.32
2022-11-13T00:41:50.977Z,7.60
2022-11-13T00:44:20.358Z,8.45
2022-11-13T00:46:49.721Z,7.15
2022-11-13T00:49:18.865Z,7.55
2022-11-13T00:51:48.125Z,7.38
2022-11-13T00:54:17.286Z,7.20
2022-11-13T00:56:46.379Z,7.22
2022-11-13T00:59:15.448Z,7.20
2022-11-13T01:01:44.671Z,7.78
2022-11-13T01:04:13.865Z,7.85
2022-11-13T01:06:43.076Z,7.80
2022-11-13T01:09:12.284Z,8.20
2022-11-13T01:11:42.535Z,12.13
2022-11-13T01:14:11.856Z,7.55
2022-11-13T01:16:41.013Z,9.40
2022-11-13T01:19:10.262Z,7.70
2022-11-13T01:21:39.505Z,7.63
2022-11-13T01:24:08.773Z,7.63
2022-11-13T01:26:37.899Z,7.93
2022-11-13T01:29:11.448Z,7.05
2022-11-13T01:31:40.915Z,5.68
2022-11-13T01:34:10.391Z,7.03
2022-11-13T01:36:39.849Z,7.32
2022-11-13T01:39:11.758Z,5.60
2022-11-13T01:41:41.872Z,4.65
2022-11-13T01:44:17.076Z,5.30
2022-11-13T01:46:58.203Z,5.03
2022-11-13T01:49:39.224Z,5.45
2022-11-13T01:52:40.508Z,5.53
2022-11-13T01:55:20.574Z,5.95
2022-11-13T01:57:49.915Z,6.03
2022-11-13T02:00:19.281Z,6.53
2022-11-13T02:02:48.417Z,6.90
2022-11-13T02:05:17.776Z,7.18
2022-11-13T02:07:47.662Z,7.70
2022-11-13T02:10:17.131Z,8.00
2022-11-13T02:12:52.466Z,8.13
2022-11-13T02:15:26.642Z,8.05
2022-11-13T02:18:02.301Z,6.97
2022-11-13T02:21:01.573Z,7.25
2022-11-13T02:24:04.696Z,7.25
2022-11-13T02:26:35.114Z,5.65
2022-11-13T02:29:04.220Z,5.82
2022-11-13T02:31:33.393Z,6.65
2022-11-13T02:34:04.929Z,6.07
2022-11-13T02:36:35.810Z,5.85
2022-11-13T02:39:11.307Z,6.00
2022-11-13T02:41:40.576Z,5.43
2022-11-13T02:44:10.166Z,4.82
2022-11-13T02:46:39.553Z,5.03
2022-11-13T02:49:08.816Z,5.10
2022-11-13T02:51:37.985Z,4.63
2022-11-13T02:54:07.407Z,4.35
2022-11-13T02:56:36.587Z,4.35
2022-11-13T02:59:05.865Z,4.28
2022-11-13T03:01:35.108Z,5.47
2022-11-13T03:04:04.971Z,6.75
2022-11-13T03:06:34.900Z,4.07
2022-11-13T03:09:04.175Z,5.18
2022-11-13T03:11:33.275Z,3.30
2022-11-13T03:14:02.830Z,3.80
2022-11-13T03:16:32.023Z,3.13
2022-11-13T03:19:01.131Z,2.85
2022-11-13T03:21:30.326Z,4.32
2022-11-13T03:24:00.173Z,2.97
2022-11-13T03:26:29.383Z,3.25
2022-11-13T03:28:58.965Z,2.47
2022-11-13T03:31:28.169Z,2.25
2022-11-13T03:33:57.503Z,2.20
2022-11-13T03:36:27.584Z,2.35
2022-11-13T03:38:56.876Z,2.80
2022-11-13T03:41:26.039Z,2.40
2022-11-13T03:43:55.128Z,2.67
2022-11-13T03:46:24.455Z,2.97
2022-11-13T03:48:55.915Z,2.35
2022-11-13T03:51:25.081Z,2.42
2022-11-13T03:53:54.127Z,2.33
2022-11-13T03:56:23.992Z,2.53
2022-11-13T03:58:53.054Z,2.50
2022-11-13T04:01:22.130Z,2.83
2022-11-13T04:03:51.310Z,2.40
2022-11-13T04:06:20.538Z,2.40
2022-11-13T04:08:49.706Z,2.50
2022-11-13T04:11:18.905Z,2.40
2022-11-13T04:13:47.946Z,2.53
2022-11-13T04:16:17.086Z,3.40
2022-11-13T04:18:46.208Z,2.45
2022-11-13T04:21:15.277Z,3.03
2022-11-13T04:23:44.402Z,2.85
2022-11-13T04:26:13.438Z,2.58
2022-11-13T04:28:42.485Z,3.33
2022-11-13T04:31:11.603Z,4.30
2022-11-13T04:33:40.649Z,2.13
2022-11-13T04:36:10.329Z,2.30
2022-11-13T04:38:39.458Z,3.10
2022-11-13T04:41:27.479Z,2.40
2022-11-13T04:43:56.589Z,2.50
2022-11-13T04:46:25.670Z,3.20
2022-11-13T04:48:54.832Z,2.75
2022-11-13T04:51:24.064Z,2.90
2022-11-13T04:53:53.235Z,2.13
2022-11-13T04:56:24.460Z,2.70
2022-11-13T04:58:54.356Z,1.67
2022-11-13T05:01:23.634Z,1.90
2022-11-13T05:03:52.789Z,2.70
2022-11-13T05:06:23.302Z,2.50
2022-11-13T05:08:53.355Z,6.20
2022-11-13T05:11:22.414Z,3.38
2022-11-13T05:13:51.504Z,2.60
2022-11-13T05:16:20.665Z,2.50
2022-11-13T05:18:50.025Z,3.00
2022-11-13T05:21:19.288Z,13.02
2022-11-13T05:23:48.371Z,14.05
2022-11-13T05:26:18.212Z,5.30
2022-11-13T05:28:47.279Z,6.40
2022-11-13T05:31:17.823Z,6.63
2022-11-13T05:33:46.988Z,4.10
2022-11-13T05:36:19.303Z,3.28
2022-11-13T05:38:48.965Z,3.58
2022-11-13T05:41:22.360Z,3.28
2022-11-13T05:43:56.549Z,3.25
2022-11-13T05:46:30.739Z,3.30
2022-11-13T05:49:02.857Z,2.67
2022-11-13T05:51:36.329Z,2.55
2022-11-13T05:54:07.214Z,2.60
2022-11-13T05:56:38.749Z,2.97
2022-11-13T05:59:08.578Z,2.53
2022-11-13T06:01:42.568Z,3.00
2022-11-13T06:04:12.509Z,1.90
2022-11-13T06:06:41.779Z,2.45
2022-11-13T06:09:15.573Z,2.20
2022-11-13T06:11:45.121Z,2.83
2022-11-13T06:14:14.304Z,2.80
2022-11-13T06:16:43.580Z,2.75
2022-11-13T06:19:13.260Z,2.55
2022-11-13T06:21:43.878Z,1.95
2022-11-13T06:24:14.782Z,2.65
2022-11-13T06:26:44.154Z,2.75
2022-11-13T06:29:14.621Z,2.03
2022-11-13T06:31:44.064Z,2.50
2022-11-13T06:34:13.231Z,2.10
2022-11-13T06:36:43.673Z,1.65
2022-11-13T06:39:14.664Z,1.73
2022-11-13T06:41:43.869Z,1.73
2022-11-13T06:44:13.052Z,1.98
2022-11-13T06:46:42.184Z,2.13
2022-11-13T06:49:11.331Z,1.75
2022-11-13T06:51:40.578Z,1.67
2022-11-13T06:54:09.791Z,1.00
2022-11-13T06:56:44.737Z,1.20
2022-11-13T06:59:14.166Z,1.05
2022-11-13T07:01:43.289Z,1.65
2022-11-13T07:04:15.149Z,1.75
2022-11-13T07:06:44.592Z,1.15
2022-11-13T07:09:13.889Z,1.42
2022-11-13T07:11:43.018Z,1.20
2022-11-13T07:14:14.037Z,1.30
2022-11-13T07:17:08.019Z,1.75
2022-11-13T07:19:34.055Z,1.50
2022-11-13T07:22:03.253Z,1.75
2022-11-13T07:24:32.363Z,1.63
2022-11-13T07:27:01.476Z,1.83
2022-11-13T07:29:30.640Z,1.90
2022-11-13T07:31:59.734Z,1.23
2022-11-13T07:34:28.986Z,1.90
2022-11-13T07:36:58.182Z,1.35
2022-11-13T07:39:27.291Z,1.45
2022-11-13T07:41:56.447Z,1.58
2022-11-13T07:44:52.812Z,1.35
2022-11-13T07:47:14.798Z,1.33
2022-11-13T07:49:44.056Z,1.63
2022-11-13T07:52:13.256Z,1.98
2022-11-13T07:54:42.606Z,1.35
2022-11-13T07:57:11.802Z,1.35
2022-11-13T07:59:41.159Z,1.55
2022-11-13T08:02:19.296Z,1.33
2022-11-13T08:04:50.342Z,1.92
2022-11-13T08:07:19.692Z,1.30
2022-11-13T08:09:48.890Z,1.33
2022-11-13T08:12:18.092Z,1.17
2022-11-13T08:14:47.225Z,1.10
2022-11-13T08:17:16.690Z,2.17
2022-11-13T08:19:45.880Z,2.00
2022-11-13T08:22:15.026Z,1.73
2022-11-13T08:24:44.174Z,2.05
2022-11-13T08:27:13.395Z,1.58
2022-11-13T08:29:42.507Z,1.10
2022-11-13T08:32:11.607Z,1.05
2022-11-13T08:34:40.836Z,1.60
2022-11-13T08:37:11.549Z,1.35
2022-11-13T08:39:40.719Z,1.55
2022-11-13T08:42:09.924Z,2.13
2022-11-13T08:44:39.007Z,1.05
2022-11-13T08:47:08.209Z,0.98
2022-11-13T08:49:37.294Z,1.02
2022-11-13T08:52:06.651Z,1.02
2022-11-13T08:54:35.711Z,1.10
2022-11-13T08:57:06.067Z,1.30
2022-11-13T08:59:35.355Z,1.08
2022-11-13T09:02:04.657Z,1.90
2022-11-13T09:04:36.653Z,1.27
2022-11-13T09:07:05.942Z,1.90
2022-11-13T09:09:35.549Z,0.98
2022-11-13T09:12:05.028Z,1.30
2022-11-13T09:14:34.192Z,1.45
2022-11-13T09:17:03.328Z,1.77
2022-11-13T09:19:32.422Z,1.20
2022-11-13T09:22:01.564Z,1.30
2022-11-13T09:24:30.733Z,1.17
2022-11-13T09:26:59.848Z,0.95
2022-11-13T09:29:29.638Z,1.42
2022-11-13T09:31:58.969Z,1.35
2022-11-13T09:34:28.971Z,1.77
2022-11-13T09:37:00.026Z,2.70
2022-11-13T09:39:29.591Z,1.55
2022-11-13T09:42:19.302Z,1.80
2022-11-13T09:45:20.660Z,2.20
2022-11-13T09:47:53.726Z,3.63
2022-11-13T09:50:30.428Z,3.00
2022-11-13T09:52:59.873Z,2.53
2022-11-13T09:55:43.014Z,2.15
2022-11-13T09:58:53.229Z,2.65
2022-11-13T10:01:38.316Z,2.83
2022-11-13T10:04:15.295Z,2.38
2022-11-13T10:07:01.439Z,2.33
2022-11-13T10:10:17.968Z,2.70
2022-11-13T10:12:53.213Z,3.03
2022-11-13T10:15:22.605Z,3.42
2022-11-13T10:18:18.562Z,3.47
2022-11-13T10:21:17.877Z,3.28
2022-11-13T10:23:58.215Z,4.50
2022-11-13T10:26:30.653Z,3.80
2022-11-13T10:29:15.769Z,4.20
2022-11-13T10:31:52.140Z,4.25
2022-11-13T10:34:22.066Z,5.10
2022-11-13T10:37:19.547Z,5.88
2022-11-13T10:39:49.003Z,5.32
2022-11-13T10:42:30.610Z,6.03
2022-11-13T10:45:04.371Z,6.85
2022-11-13T10:48:02.694Z,4.47
2022-11-13T10:50:31.812Z,4.25
2022-11-13T10:53:01.473Z,3.65
2022-11-13T10:55:39.142Z,3.60
2022-11-13T10:58:20.723Z,3.58
2022-11-13T11:00:50.785Z,3.40
2022-11-13T11:03:26.748Z,2.30
2022-11-13T11:06:03.152Z,3.20
2022-11-13T11:08:36.418Z,3.20
2022-11-13T11:11:35.294Z,2.47
2022-11-13T11:14:13.630Z,3.67
2022-11-13T11:16:43.807Z,2.63
2022-11-13T11:19:16.793Z,2.47
2022-11-13T11:21:48.336Z,3.90
2022-11-13T11:24:29.495Z,3.70
2022-11-13T11:27:27.645Z,4.22
2022-11-13T11:30:08.545Z,4.63
2022-11-13T11:32:52.731Z,4.32
2022-11-13T11:35:34.808Z,4.45
2022-11-13T11:38:23.871Z,4.28
2022-11-13T11:41:04.349Z,4.63
2022-11-13T11:44:03.954Z,5.18
2022-11-13T11:46:33.275Z,5.88
2022-11-13T11:49:04.142Z,7.70
2022-11-13T11:51:55.251Z,7.82
2022-11-13T11:54:47.569Z,8.18
2022-11-13T11:58:19.659Z,7.40
2022-11-13T12:01:38.615Z,7.45
2022-11-13T12:04:46.066Z,6.88
2022-11-13T12:07:48.071Z,6.50
2022-11-13T12:10:30.180Z,6.07
2022-11-13T12:13:21.620Z,7.03
2022-11-13T12:16:25.059Z,6.45
2022-11-13T12:19:05.309Z,7.20
2022-11-13T12:21:55.147Z,6.20
2022-11-13T12:24:38.558Z,6.43
2022-11-13T12:27:33.152Z,5.93
2022-11-13T12:30:18.369Z,6.05
2022-11-13T12:33:17.125Z,6.63
2022-11-13T12:35:52.516Z,6.45
2022-11-13T12:38:38.755Z,6.00
2022-11-13T12:41:29.619Z,6.05
2022-11-13T12:44:30.428Z,5.75
2022-11-13T12:47:03.019Z,5.90
2022-11-13T12:49:36.430Z,6.45
2022-11-13T12:52:25.408Z,5.85
2022-11-13T12:55:30.441Z,6.57
2022-11-13T12:58:23.398Z,6.32
2022-11-13T13:01:22.096Z,6.07
2022-11-13T13:04:21.592Z,6.68
2022-11-13T13:07:12.106Z,6.60
2022-11-13T13:10:24.312Z,6.60
2022-11-13T13:13:40.921Z,5.93
2022-11-13T13:16:11.840Z,7.22
2022-11-13T13:18:42.178Z,6.75
2022-11-13T13:21:18.614Z,6.40
2022-11-13T13:23:54.419Z,8.20
2022-11-13T13:26:31.663Z,7.30
2022-11-13T13:29:27.488Z,7.18
2022-11-13T13:32:00.784Z,7.88
2022-11-13T13:35:23.005Z,7.30
2022-11-13T13:38:33.600Z,7.22
2022-11-13T13:41:36.640Z,7.30
2022-11-13T13:44:39.258Z,6.85
2022-11-13T13:47:25.596Z,7.97
2022-11-13T13:49:56.280Z,6.97
2022-11-13T13:52:34.547Z,7.18
2022-11-13T13:55:08.572Z,6.85
2022-11-13T13:57:43.600Z,6.78
2022-11-13T14:00:15.600Z,6.72
2022-11-13T14:02:53.211Z,6.53
2022-11-13T14:05:39.171Z,6.50
2022-11-13T14:08:24.427Z,6.53
2022-11-13T14:10:54.385Z,6.75
2022-11-13T14:13:30.372Z,7.35
2022-11-13T14:16:06.352Z,6.43
2022-11-13T14:18:37.399Z,6.80
2022-11-13T14:21:26.021Z,6.93
2022-11-13T14:23:58.495Z,6.00
2022-11-13T14:26:27.746Z,7.15
2022-11-13T14:29:09.936Z,7.35
2022-11-13T14:31:39.184Z,6.20
2022-11-13T14:34:19.519Z,6.60
2022-11-13T14:36:50.084Z,6.45
2022-11-13T14:39:36.011Z,6.65
2022-11-13T14:42:05.549Z,5.47
2022-11-13T14:44:36.758Z,7.13
2022-11-13T14:47:23.702Z,6.53
2022-11-13T14:49:52.920Z,6.15
2022-11-13T14:52:30.399Z,6.13
2022-11-13T14:55:15.178Z,6.60
2022-11-13T14:57:51.745Z,6.80
2022-11-13T15:00:30.377Z,6.63
2022-11-13T15:03:01.043Z,7.97
2022-11-13T15:05:30.572Z,6.68
2022-11-13T15:08:00.966Z,7.05
2022-11-13T15:10:32.797Z,6.85
2022-11-13T15:13:02.176Z,7.47
2022-11-13T15:15:31.910Z,6.63
2022-11-13T15:18:03.476Z,7.20
2022-11-13T15:20:33.260Z,6.50
2022-11-13T15:23:03.065Z,6.68
2022-11-13T15:25:32.209Z,6.80
2022-11-13T15:28:01.415Z,7.03
2022-11-13T15:30:30.543Z,7.43
2022-11-13T15:33:00.346Z,7.85
2022-11-13T15:35:29.571Z,7.18
2022-11-13T15:37:59.602Z,7.05
2022-11-13T15:40:28.628Z,7.28
2022-11-13T15:42:59.971Z,8.10
2022-11-13T15:45:29.247Z,7.20
2022-11-13T15:47:58.324Z,6.53
2022-11-13T15:50:27.485Z,7.53
2022-11-13T15:53:00.988Z,7.22
2022-11-13T15:55:34.540Z,7.13
2022-11-13T15:58:04.691Z,6.93
2022-11-13T16:00:34.678Z,6.78
2022-11-13T16:03:05.591Z,7.03
2022-11-13T16:05:36.764Z,6.07
2022-11-13T16:08:17.133Z,6.63
2022-11-13T16:10:46.228Z,6.85
2022-11-13T16:13:15.284Z,7.35
2022-11-13T16:15:44.601Z,7.05
2022-11-13T16:18:27.631Z,7.05
2022-11-13T16:20:56.989Z,6.65
2022-11-13T16:23:27.060Z,6.70
2022-11-13T16:25:56.548Z,6.47
2022-11-13T16:28:26.839Z,7.13
2022-11-13T16:30:56.320Z,7.97
2022-11-13T16:33:25.431Z,6.97
2022-11-13T16:35:55.944Z,7.32
2022-11-13T16:38:25.013Z,7.03
2022-11-13T16:40:54.062Z,7.35
2022-11-13T16:43:23.165Z,7.88
2022-11-13T16:45:54.285Z,7.65
2022-11-13T16:48:23.345Z,8.25
2022-11-13T16:50:52.405Z,7.38
2022-11-13T16:53:22.724Z,7.15
2022-11-13T16:55:51.730Z,8.23
2022-11-13T16:58:20.948Z,6.60
2022-11-13T17:00:49.967Z,6.55
2022-11-13T17:03:19.020Z,6.90
2022-11-13T17:05:52.256Z,7.28
2022-11-13T17:08:22.883Z,6.68
2022-11-13T17:11:01.275Z,7.63
2022-11-13T17:16:03.050Z,7.20
2022-11-13T17:18:32.150Z,6.65
2022-11-13T17:21:02.078Z,7.00
2022-11-13T17:23:31.353Z,6.65
2022-11-13T17:26:00.645Z,6.88
2022-11-13T17:28:30.034Z,6.93
2022-11-13T17:31:12.972Z,6.82
2022-11-13T17:33:43.638Z,6.72
2022-11-13T17:36:13.080Z,6.60
2022-11-13T17:38:42.281Z,7.15
2022-11-13T17:41:14.504Z,6.00
2022-11-13T17:43:44.293Z,6.45
2022-11-13T17:46:17.703Z,7.35
2022-11-13T17:48:48.987Z,6.32
2022-11-13T17:51:19.167Z,6.40
2022-11-13T17:53:48.275Z,6.00
2022-11-13T17:56:17.344Z,5.88
2022-11-13T17:58:47.662Z,5.95
2022-11-13T18:01:22.616Z,5.35
2022-11-13T18:03:57.785Z,6.70
2022-11-13T18:06:27.512Z,6.68
2022-11-13T18:08:56.741Z,5.88
2022-11-13T18:11:31.483Z,6.40
2022-11-13T18:14:00.622Z,5.07
2022-11-13T18:16:38.387Z,5.65
2022-11-13T18:19:10.203Z,5.78
2022-11-13T18:21:40.743Z,5.53
2022-11-13T18:24:18.416Z,6.28
2022-11-13T18:26:48.068Z,5.67
2022-11-13T18:29:17.206Z,5.45
2022-11-13T18:31:46.503Z,5.57
2022-11-13T18:34:18.351Z,5.72
2022-11-13T18:36:48.288Z,6.22
2022-11-13T18:39:17.539Z,5.97
2022-11-13T18:41:46.683Z,5.43
2022-11-13T18:44:15.915Z,5.45
2022-11-13T18:46:45.202Z,5.25
2022-11-13T18:49:14.333Z,4.55
2022-11-13T18:51:44.831Z,5.60
2022-11-13T18:54:14.162Z,6.18
2022-11-13T18:56:43.879Z,6.80
2022-11-13T18:59:13.085Z,8.70
2022-11-13T19:01:43.135Z,8.00
2022-11-13T19:04:28.159Z,7.90
2022-11-13T19:06:58.268Z,8.98
2022-11-13T19:09:27.702Z,9.10
2022-11-13T19:11:56.909Z,8.77
2022-11-13T19:14:26.037Z,10.00
2022-11-13T19:16:55.162Z,11.02
2022-11-13T19:19:25.409Z,10.55
2022-11-13T19:21:54.607Z,10.35
2022-11-13T19:24:23.797Z,9.48
2022-11-13T19:26:53.021Z,8.68
2022-11-13T19:29:22.267Z,9.77
2022-11-13T19:31:54.602Z,9.95
2022-11-13T19:34:23.780Z,8.50
2022-11-13T19:36:55.368Z,10.40
2022-11-13T19:39:24.811Z,8.60
2022-11-13T19:41:54.020Z,8.98
2022-11-13T19:44:23.290Z,10.27
2022-11-13T19:46:52.493Z,9.70
2022-11-13T19:49:21.714Z,8.45
2022-11-13T19:51:51.030Z,7.82
2022-11-13T19:54:20.235Z,7.30
2022-11-13T19:56:49.520Z,7.30
2022-11-13T19:59:18.722Z,8.77
2022-11-13T20:01:47.940Z,9.05
2022-11-13T20:04:17.132Z,7.97
2022-11-13T20:06:46.324Z,8.32
2022-11-13T20:09:15.503Z,7.13
2022-11-13T20:11:46.079Z,6.28
2022-11-13T20:14:15.546Z,5.88
2022-11-13T20:16:44.694Z,6.50
2022-11-13T20:19:13.815Z,7.25
2022-11-13T20:21:43.013Z,7.75
2022-11-13T20:24:12.495Z,7.43
2022-11-13T20:26:41.617Z,7.15
2022-11-13T20:29:10.765Z,7.47
2022-11-13T20:31:39.917Z,6.80
2022-11-13T20:34:09.988Z,6.78
2022-11-13T20:36:40.028Z,7.57
2022-11-13T20:39:10.579Z,7.95
2022-11-13T20:41:39.813Z,8.68
2022-11-13T20:44:09.046Z,11.05
2022-11-13T20:46:38.280Z,9.65
2022-11-13T20:49:07.459Z,10.05
2022-11-13T20:51:36.696Z,11.82
2022-11-13T20:54:06.034Z,10.63
2022-11-13T20:56:35.201Z,10.52
2022-11-13T20:59:05.047Z,9.73
2022-11-13T21:01:37.527Z,10.30
2022-11-13T21:04:06.879Z,9.05
2022-11-13T21:06:36.053Z,9.15
2022-11-13T21:09:06.561Z,8.52
2022-11-13T21:11:35.808Z,7.80
2022-11-13T21:14:05.115Z,8.63
2022-11-13T21:16:34.320Z,7.88
2022-11-13T21:19:03.515Z,8.85
2022-11-13T21:21:32.780Z,8.20
2022-11-13T21:24:02.002Z,8.43
2022-11-13T21:26:31.201Z,7.50
2022-11-13T21:29:03.945Z,7.75
2022-11-13T21:31:33.096Z,8.70
2022-11-13T21:34:02.264Z,8.20
2022-11-13T21:36:31.578Z,7.78
2022-11-13T21:39:01.206Z,8.93
2022-11-13T21:41:30.268Z,7.82
2022-11-13T21:44:05.906Z,7.28
2022-11-13T21:46:40.173Z,7.88
2022-11-13T21:49:13.203Z,8.02
2022-11-13T21:51:44.372Z,8.20
2022-11-13T21:54:13.523Z,7.85
2022-11-13T21:56:43.147Z,7.32
2022-11-13T21:59:12.265Z,7.78
2022-11-13T22:01:41.395Z,7.45
2022-11-13T22:04:10.471Z,8.00
2022-11-13T22:06:42.452Z,7.63
2022-11-13T22:09:19.050Z,7.28
2022-11-13T22:11:48.310Z,7.80
2022-11-13T22:14:17.501Z,7.65
2022-11-13T22:16:49.061Z,7.00
2022-11-13T22:19:26.528Z,7.20
2022-11-13T22:21:56.908Z,7.40
2022-11-13T22:24:26.013Z,6.82
2022-11-13T22:26:55.054Z,7.10
2022-11-13T22:29:24.135Z,7.57
2022-11-13T22:31:53.170Z,5.90
2022-11-13T22:34:22.311Z,6.20
2022-11-13T22:36:51.763Z,6.57
2022-11-13T22:39:20.925Z,7.35
2022-11-13T22:41:49.944Z,11.40
2022-11-13T22:44:18.993Z,10.88
2022-11-13T22:46:48.170Z,10.77
2022-11-13T22:49:17.264Z,14.10
2022-11-13T22:51:46.336Z,20.85
2022-11-13T22:54:15.430Z,22.02
2022-11-13T22:56:44.583Z,20.10
2022-11-13T22:59:14.952Z,17.70
2022-11-13T23:01:44.665Z,16.58
2022-11-13T23:04:15.458Z,16.50
2022-11-13T23:06:44.645Z,15.27
2022-11-13T23:09:13.780Z,14.20
2022-11-13T23:11:44.912Z,13.68
2022-11-13T23:14:18.422Z,11.10
2022-11-13T23:16:47.553Z,9.23
2022-11-13T23:19:16.583Z,8.93
2022-11-13T23:21:48.156Z,10.07
2022-11-13T23:24:17.176Z,9.18
2022-11-13T23:26:46.299Z,8.90
2022-11-13T23:29:15.653Z,8.82
2022-11-13T23:31:44.698Z,8.13
2022-11-13T23:34:16.602Z,8.93
2022-11-13T23:36:56.181Z,10.20
2022-11-13T23:39:25.210Z,8.57
2022-11-13T23:41:54.239Z,13.52
2022-11-13T23:44:23.295Z,15.75
2022-11-13T23:46:52.357Z,12.52
2022-11-13T23:49:21.443Z,11.73
2022-11-13T23:51:50.561Z,9.90
2022-11-13T23:54:19.625Z,10.00
2022-11-13T23:56:48.658Z,10.32
2022-11-13T23:59:17.805Z,10.82
